Terminal Aerodrome Forecast
Issued by NWS Cheyenne, WY

Home | Current Version | Previous Version | Text Only | Print | Product List | Glossary On
Versions: 1 2 3 4 5 6 7 8 9 10 11 12 13 14 15 16 17
000
FTUS45 KCYS 211120
TAFCYS
TAF
KCYS 211120Z 2112/2212 21008KT P6SM SKC
     FM211600 18012G22KT P6SM FEW150
     FM220100 23008KT P6SM SCT120=

USA.gov is the U.S. government's official web portal to all federal, state and local government web resources and services.